createdAt,value
2022-11-14T19:12:13.752Z,1.58
2022-11-14T19:14:41.240Z,1.33
2022-11-14T19:17:08.473Z,1.50
2022-11-14T19:19:35.889Z,1.30
2022-11-14T19:22:03.327Z,1.27
2022-11-14T19:24:30.618Z,1.70
2022-11-14T19:26:58.037Z,1.20
2022-11-14T19:29:26.991Z,1.30
2022-11-14T19:31:54.186Z,1.35
2022-11-14T19:34:21.668Z,1.45
2022-11-14T19:37:04.256Z,1.45
2022-11-14T19:39:31.793Z,1.63
2022-11-14T19:41:59.104Z,1.40
2022-11-14T19:44:27.945Z,1.35
2022-11-14T19:46:55.287Z,1.30
2022-11-14T19:49:22.536Z,1.55
2022-11-14T19:51:50.056Z,1.40
2022-11-14T19:54:17.403Z,1.60
2022-11-14T19:56:44.693Z,1.52
2022-11-14T19:59:14.891Z,1.70
2022-11-14T20:01:45.220Z,2.30
2022-11-14T20:04:12.795Z,1.80
2022-11-14T20:06:40.116Z,1.80
2022-11-14T20:09:08.394Z,2.65
2022-11-14T20:11:35.832Z,2.80
2022-11-14T20:14:03.188Z,3.33
2022-11-14T20:16:31.421Z,2.75
2022-11-14T20:19:00.750Z,2.90
2022-11-14T20:21:29.838Z,2.53
2022-11-14T20:23:57.129Z,3.42
2022-11-14T20:26:24.492Z,3.58
2022-11-14T20:28:52.401Z,3.65
2022-11-14T20:31:20.554Z,5.97
2022-11-14T20:33:48.296Z,5.40
2022-11-14T20:36:17.802Z,6.28
2022-11-14T20:38:48.032Z,7.25
2022-11-14T20:41:15.297Z,5.85
2022-11-14T20:43:42.674Z,5.88
2022-11-14T20:46:11.818Z,7.72
2022-11-14T20:48:39.117Z,6.07
2022-11-14T20:51:07.117Z,6.05
2022-11-14T20:53:35.958Z,7.45
2022-11-14T20:56:03.326Z,6.70
2022-11-14T20:58:30.657Z,6.82
2022-11-14T21:00:58.192Z,5.78
2022-11-14T21:03:25.531Z,6.20
2022-11-14T21:05:52.852Z,6.28
2022-11-14T21:08:20.320Z,5.95
2022-11-14T21:10:50.209Z,5.82
2022-11-14T21:13:19.032Z,5.78
2022-11-14T21:15:46.536Z,5.47
2022-11-14T21:18:14.039Z,6.03
2022-11-14T21:20:41.661Z,6.63
2022-11-14T21:23:09.124Z,5.10
2022-11-14T21:25:36.648Z,5.25
2022-11-14T21:28:05.673Z,5.97
2022-11-14T21:30:33.789Z,5.45
2022-11-14T21:33:01.291Z,5.00
2022-11-14T21:35:31.199Z,5.10
2022-11-14T21:37:58.652Z,3.83
2022-11-14T21:40:26.194Z,4.20
2022-11-14T21:42:53.732Z,4.88
2022-11-14T21:45:22.749Z,4.35
2022-11-14T21:47:50.237Z,4.43
2022-11-14T21:50:17.863Z,4.20
2022-11-14T21:52:45.444Z,4.90
2022-11-14T21:55:13.020Z,4.60
2022-11-14T21:57:40.538Z,3.92
2022-11-14T22:00:09.442Z,4.18
2022-11-14T22:02:38.401Z,3.78
2022-11-14T22:05:06.399Z,3.92
2022-11-14T22:07:33.987Z,3.55
2022-11-14T22:10:01.615Z,3.90
2022-11-14T22:12:29.220Z,3.42
2022-11-14T22:14:56.783Z,3.22
2022-11-14T22:17:24.347Z,3.15
2022-11-14T22:19:53.313Z,3.60
2022-11-14T22:22:20.775Z,3.00
2022-11-14T22:24:48.303Z,2.80
2022-11-14T22:27:15.880Z,2.83
2022-11-14T22:29:43.393Z,3.25
2022-11-14T22:32:10.982Z,2.80
2022-11-14T22:34:38.441Z,2.83
2022-11-14T22:37:07.474Z,3.08
2022-11-14T22:39:35.081Z,2.10
2022-11-14T22:42:02.631Z,2.35
2022-11-14T22:44:30.249Z,2.30
2022-11-14T22:46:57.793Z,2.17
2022-11-14T22:49:25.333Z,2.15
2022-11-14T22:51:52.901Z,2.10
2022-11-14T22:54:21.964Z,1.75
2022-11-14T22:56:49.442Z,1.90
2022-11-14T22:59:17.016Z,2.33
2022-11-14T23:01:44.531Z,1.60
2022-11-14T23:04:12.142Z,1.95
2022-11-14T23:06:39.708Z,1.50
2022-11-14T23:09:07.233Z,1.50
2022-11-14T23:11:36.211Z,1.42
2022-11-14T23:14:03.801Z,1.52
2022-11-14T23:16:32.164Z,1.50
2022-11-14T23:19:01.101Z,1.63
2022-11-14T23:21:29.606Z,1.55
2022-11-14T23:23:58.060Z,1.50
2022-11-14T23:26:26.012Z,1.33
2022-11-14T23:28:55.041Z,1.60
2022-11-14T23:31:22.612Z,1.08
2022-11-14T23:33:51.993Z,1.13
2022-11-14T23:36:19.595Z,1.25
2022-11-14T23:38:47.138Z,1.50
2022-11-14T23:41:16.784Z,1.52
2022-11-14T23:43:44.445Z,1.10
2022-11-14T23:46:13.495Z,1.25
2022-11-14T23:48:41.032Z,1.15
2022-11-14T23:51:08.652Z,1.25
2022-11-14T23:53:36.145Z,1.00
2022-11-14T23:56:03.776Z,0.90
2022-11-14T23:58:31.446Z,1.10
